createdAt,value
2023-05-14T00:00:42.875Z,50.07
2023-05-14T00:02:45.986Z,32.43
2023-05-14T00:04:49.185Z,52.33
2023-05-14T00:06:51.256Z,57.47
2023-05-14T00:08:54.293Z,44.00
2023-05-14T00:10:57.301Z,37.93
2023-05-14T00:13:00.407Z,45.80
2023-05-14T00:15:05.584Z,36.73
2023-05-14T00:17:08.555Z,44.60
2023-05-14T00:19:11.631Z,46.97
2023-05-14T00:21:14.696Z,38.77
2023-05-14T00:23:17.702Z,36.47
2023-05-14T00:25:20.802Z,54.10
2023-05-14T00:27:23.817Z,43.30
2023-05-14T00:29:26.891Z,46.43
2023-05-14T00:31:31.334Z,58.53
2023-05-14T00:33:35.131Z,57.90
2023-05-14T00:35:38.428Z,41.77
2023-05-14T00:37:42.310Z,48.17
2023-05-14T00:39:45.539Z,36.37
2023-05-14T00:41:48.592Z,46.17
2023-05-14T00:43:51.577Z,50.17
2023-05-14T00:45:55.673Z,60.00
2023-05-14T00:48:00.113Z,44.37
2023-05-14T00:50:04.068Z,33.73
2023-05-14T00:52:07.435Z,65.13
2023-05-14T00:54:10.617Z,44.27
2023-05-14T00:56:14.093Z,36.97
2023-05-14T00:58:17.157Z,33.60
2023-05-14T01:00:21.214Z,50.50
2023-05-14T01:02:24.766Z,54.50
2023-05-14T01:04:29.608Z,24.13
2023-05-14T01:06:39.740Z,44.20
2023-05-14T01:08:59.616Z,46.67
2023-05-14T01:11:07.905Z,47.97
2023-05-14T01:13:15.349Z,47.50
2023-05-14T01:15:24.238Z,61.73
2023-05-14T01:17:30.372Z,42.60
2023-05-14T01:19:39.148Z,56.13
2023-05-14T01:21:45.652Z,38.47
2023-05-14T01:23:49.393Z,45.87
2023-05-14T01:25:53.118Z,49.93
2023-05-14T01:28:02.401Z,31.63
2023-05-14T01:30:12.755Z,67.80
2023-05-14T01:32:17.415Z,52.13
2023-05-14T01:34:22.696Z,61.83
2023-05-14T01:36:26.575Z,51.60
2023-05-14T01:38:34.069Z,28.37
2023-05-14T01:40:38.416Z,52.83
2023-05-14T01:42:42.421Z,65.67
2023-05-14T01:44:46.165Z,51.40
2023-05-14T01:46:49.901Z,58.20
2023-05-14T01:48:53.342Z,36.53
2023-05-14T01:50:57.142Z,50.33
2023-05-14T01:53:00.768Z,73.63
2023-05-14T01:55:07.164Z,55.60
2023-05-14T01:57:10.737Z,31.00
2023-05-14T01:59:14.280Z,47.00
2023-05-14T02:01:17.939Z,61.10
2023-05-14T02:03:21.684Z,49.43
2023-05-14T02:05:25.464Z,42.20
2023-05-14T02:07:30.996Z,49.20
2023-05-14T02:09:34.850Z,38.30
2023-05-14T02:11:40.040Z,41.30
2023-05-14T02:13:43.559Z,46.80
2023-05-14T02:15:47.292Z,43.23
2023-05-14T02:17:50.995Z,54.00
2023-05-14T02:19:54.546Z,30.67
2023-05-14T02:21:58.095Z,42.97
2023-05-14T02:24:01.485Z,47.57
2023-05-14T02:26:05.433Z,48.27
2023-05-14T02:28:10.448Z,38.07
2023-05-14T02:30:15.228Z,50.60
2023-05-14T02:32:19.024Z,39.53
2023-05-14T02:34:22.487Z,45.37
2023-05-14T02:36:27.455Z,39.77
2023-05-14T02:38:31.187Z,47.83
2023-05-14T02:40:34.766Z,39.40
2023-05-14T02:42:38.469Z,51.50
2023-05-14T02:44:43.479Z,33.67
2023-05-14T02:46:47.900Z,41.40
2023-05-14T02:48:51.537Z,28.90
2023-05-14T02:50:55.742Z,51.43
2023-05-14T02:52:59.283Z,47.10
2023-05-14T02:55:03.335Z,43.97
2023-05-14T02:57:06.978Z,53.70
2023-05-14T02:59:09.974Z,62.20
2023-05-14T03:01:15.118Z,54.33
2023-05-14T03:03:20.159Z,55.27
2023-05-14T03:05:23.847Z,48.33
2023-05-14T03:07:26.848Z,66.90
2023-05-14T03:09:29.847Z,47.10
2023-05-14T03:11:32.885Z,49.37
2023-05-14T03:13:35.921Z,44.30
2023-05-14T03:15:38.949Z,36.13
2023-05-14T03:17:43.591Z,54.80
2023-05-14T03:19:46.629Z,54.77
2023-05-14T03:21:50.112Z,45.07
2023-05-14T03:23:53.654Z,44.10
2023-05-14T03:25:56.681Z,53.80
2023-05-14T03:28:00.905Z,54.50
2023-05-14T03:30:04.491Z,37.77
2023-05-14T03:32:08.081Z,38.77
2023-05-14T03:34:12.557Z,43.97
2023-05-14T03:36:15.654Z,43.13
2023-05-14T03:38:18.668Z,38.87
2023-05-14T03:40:23.269Z,41.57
2023-05-14T03:42:27.098Z,43.60
2023-05-14T03:44:30.264Z,47.27
2023-05-14T03:46:33.435Z,41.00
2023-05-14T03:48:36.557Z,30.77
2023-05-14T03:50:42.616Z,29.57
2023-05-14T03:52:46.007Z,39.17
2023-05-14T03:54:49.043Z,52.27
2023-05-14T03:56:52.065Z,41.17
2023-05-14T03:58:55.042Z,49.20
2023-05-14T04:00:58.265Z,48.30
2023-05-14T04:03:02.151Z,46.50
2023-05-14T04:05:05.630Z,39.23
2023-05-14T04:07:10.206Z,36.83
2023-05-14T04:09:13.236Z,49.30
2023-05-14T04:11:16.373Z,52.03
2023-05-14T04:13:19.523Z,52.43
2023-05-14T04:15:22.709Z,57.40
2023-05-14T04:17:25.949Z,64.17
2023-05-14T04:19:29.116Z,38.00
2023-05-14T04:21:33.404Z,44.90
2023-05-14T04:23:37.760Z,52.83
2023-05-14T04:25:40.939Z,47.27
2023-05-14T04:27:44.008Z,43.30
2023-05-14T04:29:47.058Z,44.17
2023-05-14T04:31:50.674Z,43.80
2023-05-14T04:33:53.865Z,67.03
2023-05-14T04:35:56.962Z,66.90
2023-05-14T04:38:01.277Z,35.33
2023-05-14T04:40:06.689Z,50.90
2023-05-14T04:42:09.743Z,42.07
2023-05-14T04:44:13.801Z,36.80
2023-05-14T04:46:16.922Z,57.33
2023-05-14T04:48:20.033Z,39.60
2023-05-14T04:50:23.459Z,43.40
2023-05-14T04:52:26.861Z,51.67
2023-05-14T04:54:30.090Z,55.77
2023-05-14T04:56:34.520Z,53.40
2023-05-14T04:58:37.539Z,56.03
2023-05-14T05:00:41.129Z,48.93
2023-05-14T05:02:44.413Z,54.67
2023-05-14T05:04:47.518Z,64.03
2023-05-14T05:06:50.726Z,41.90
2023-05-14T05:08:53.771Z,55.53
2023-05-14T05:10:56.747Z,55.80
2023-05-14T05:13:01.394Z,42.87
2023-05-14T05:15:04.589Z,41.80
2023-05-14T05:17:09.424Z,56.93
2023-05-14T05:19:12.673Z,52.37
2023-05-14T05:21:15.826Z,28.73
2023-05-14T05:23:18.940Z,61.63
2023-05-14T05:25:22.130Z,42.70
2023-05-14T05:27:25.121Z,53.47
2023-05-14T05:29:29.733Z,36.27
2023-05-14T05:31:33.064Z,50.00
2023-05-14T05:33:36.453Z,48.03
2023-05-14T05:35:39.567Z,39.00
2023-05-14T05:37:45.182Z,62.00
2023-05-14T05:39:48.410Z,42.57
2023-05-14T05:41:55.129Z,49.70
2023-05-14T05:43:58.098Z,51.67
2023-05-14T05:46:02.994Z,56.07
2023-05-14T05:48:06.628Z,50.00
2023-05-14T05:50:10.843Z,37.33
2023-05-14T05:52:13.954Z,30.07
2023-05-14T05:54:19.801Z,55.80
2023-05-14T05:56:22.890Z,65.33
2023-05-14T05:58:26.277Z,36.23
2023-05-14T06:00:29.282Z,33.93
2023-05-14T06:02:33.961Z,42.57
2023-05-14T06:04:36.982Z,41.33
2023-05-14T06:06:40.166Z,44.30
2023-05-14T06:08:43.200Z,40.47
2023-05-14T06:10:47.532Z,47.50
2023-05-14T06:12:50.953Z,44.37
2023-05-14T06:14:55.427Z,43.73
2023-05-14T06:16:58.737Z,53.97
2023-05-14T06:19:03.365Z,46.90
2023-05-14T06:21:06.733Z,38.80
2023-05-14T06:23:11.267Z,40.60
2023-05-14T06:25:14.307Z,50.03
2023-05-14T06:27:17.539Z,51.30
2023-05-14T06:29:20.582Z,42.33
2023-05-14T06:31:23.624Z,58.40
2023-05-14T06:33:30.871Z,40.87
2023-05-14T06:35:35.603Z,47.77
2023-05-14T06:37:38.696Z,47.00
2023-05-14T06:39:46.719Z,47.27
2023-05-14T06:41:50.349Z,48.00
2023-05-14T06:43:53.371Z,43.97
2023-05-14T06:45:56.416Z,63.53
2023-05-14T06:47:59.539Z,31.90
2023-05-14T06:50:02.866Z,52.33
2023-05-14T06:52:08.122Z,34.77
2023-05-14T06:54:11.174Z,39.57
2023-05-14T06:56:14.737Z,58.20
2023-05-14T06:58:17.824Z,44.53
2023-05-14T07:00:22.203Z,62.10
2023-05-14T07:02:25.642Z,40.57
2023-05-14T07:04:28.792Z,42.17
2023-05-14T07:06:32.499Z,35.07
2023-05-14T07:08:37.174Z,41.23
2023-05-14T07:10:40.749Z,53.40
2023-05-14T07:12:44.195Z,53.70
2023-05-14T07:14:47.223Z,38.73
2023-05-14T07:16:50.358Z,23.43
2023-05-14T07:18:53.640Z,37.57
2023-05-14T07:20:56.803Z,40.47
2023-05-14T07:23:00.005Z,50.93
2023-05-14T07:25:04.543Z,39.07
2023-05-14T07:27:08.633Z,42.77
2023-05-14T07:29:11.780Z,49.27
2023-05-14T07:31:14.978Z,40.07
2023-05-14T07:33:18.109Z,39.60
2023-05-14T07:35:21.212Z,49.10
2023-05-14T07:37:26.000Z,35.13
2023-05-14T07:39:29.096Z,30.87
2023-05-14T07:41:33.658Z,35.57
2023-05-14T07:43:38.475Z,52.07
2023-05-14T07:45:41.820Z,29.73
2023-05-14T07:47:44.988Z,10.63
2023-05-14T07:49:48.182Z,30.97
2023-05-14T07:51:51.299Z,45.97
2023-05-14T07:53:55.426Z,34.17
2023-05-14T07:55:59.982Z,40.07
2023-05-14T07:58:04.525Z,40.23
2023-05-14T08:00:09.189Z,50.27
2023-05-14T08:02:18.445Z,31.97
2023-05-14T08:04:23.474Z,47.10
2023-05-14T08:06:27.575Z,36.07
2023-05-14T08:08:30.913Z,35.60
2023-05-14T08:10:34.234Z,40.10
2023-05-14T08:12:37.474Z,36.23
2023-05-14T08:14:42.092Z,37.97
2023-05-14T08:16:45.227Z,50.30
2023-05-14T08:18:48.499Z,39.87
2023-05-14T08:20:51.734Z,46.70
2023-05-14T08:22:54.713Z,32.87
2023-05-14T08:24:57.900Z,53.90
2023-05-14T08:27:01.047Z,37.67
2023-05-14T08:29:04.214Z,35.03
2023-05-14T08:31:08.688Z,23.47
2023-05-14T08:33:12.026Z,25.30
2023-05-14T08:35:15.182Z,41.30
2023-05-14T08:37:18.259Z,40.67
2023-05-14T08:39:21.335Z,44.47
2023-05-14T08:41:24.645Z,37.10
2023-05-14T08:43:29.504Z,44.77
2023-05-14T08:45:34.165Z,27.73
2023-05-14T08:47:38.916Z,34.37
2023-05-14T08:49:44.499Z,37.93
2023-05-14T08:51:48.586Z,33.93
2023-05-14T08:53:51.747Z,24.10
2023-05-14T08:55:55.027Z,34.77
2023-05-14T08:57:58.133Z,52.63
2023-05-14T09:00:01.769Z,29.57
2023-05-14T09:02:06.968Z,49.40
2023-05-14T09:04:12.810Z,34.73
2023-05-14T09:06:16.892Z,35.63
2023-05-14T09:08:20.820Z,28.53
2023-05-14T09:10:24.333Z,49.80
2023-05-14T09:12:27.979Z,47.37
2023-05-14T09:14:31.140Z,32.23
2023-05-14T09:16:34.397Z,29.40
2023-05-14T09:18:37.930Z,36.67
2023-05-14T09:20:42.537Z,30.43
2023-05-14T09:22:45.747Z,47.63
2023-05-14T09:25:03.906Z,33.87
2023-05-14T09:27:07.522Z,44.13
2023-05-14T09:29:11.033Z,34.77
2023-05-14T09:31:14.290Z,43.27
2023-05-14T09:33:27.259Z,35.50
2023-05-14T09:35:30.440Z,28.63
2023-05-14T09:37:37.444Z,51.60
2023-05-14T09:39:41.284Z,29.23
2023-05-14T09:41:44.356Z,29.30
2023-05-14T09:43:47.475Z,38.47
2023-05-14T09:45:50.587Z,32.20
2023-05-14T09:47:53.818Z,40.57
2023-05-14T09:49:56.918Z,25.33
2023-05-14T09:51:59.999Z,35.50
2023-05-14T09:54:05.729Z,33.20
2023-05-14T09:56:09.029Z,37.07
2023-05-14T09:58:14.406Z,31.30
2023-05-14T10:00:18.132Z,98.90
2023-05-14T10:02:24.179Z,27.23
2023-05-14T10:04:27.454Z,40.77
2023-05-14T10:06:34.824Z,36.33
2023-05-14T10:08:42.931Z,40.17
2023-05-14T10:10:47.584Z,33.63
2023-05-14T10:12:54.235Z,40.97
2023-05-14T10:14:59.265Z,49.23
2023-05-14T10:17:03.086Z,36.97
2023-05-14T10:19:09.163Z,41.40
2023-05-14T10:21:12.769Z,49.27
2023-05-14T10:23:16.088Z,29.80
2023-05-14T10:25:19.474Z,42.50
2023-05-14T10:27:24.622Z,27.83
2023-05-14T10:29:33.678Z,39.93
2023-05-14T10:31:51.696Z,33.70
2023-05-14T10:33:55.215Z,36.83
2023-05-14T10:36:01.094Z,32.87
2023-05-14T10:38:09.281Z,32.63
2023-05-14T10:40:13.670Z,37.97
2023-05-14T10:42:19.157Z,28.50
2023-05-14T10:44:23.734Z,17.13
2023-05-14T10:46:26.983Z,40.87
2023-05-14T10:48:30.127Z,35.83
2023-05-14T10:50:33.241Z,41.40
2023-05-14T10:52:36.635Z,31.77
2023-05-14T10:54:39.868Z,26.43
2023-05-14T10:56:45.116Z,40.27
2023-05-14T10:58:51.444Z,39.90
2023-05-14T11:00:57.142Z,47.47
2023-05-14T11:03:01.654Z,62.27
2023-05-14T11:05:08.198Z,40.37
2023-05-14T11:07:11.503Z,49.07
2023-05-14T11:09:18.384Z,23.67
2023-05-14T11:11:21.994Z,27.67
2023-05-14T11:13:27.393Z,34.57
2023-05-14T11:15:30.493Z,39.33
2023-05-14T11:17:36.849Z,37.97
2023-05-14T11:19:39.959Z,39.57
2023-05-14T11:21:43.160Z,31.23
2023-05-14T11:23:47.944Z,34.07
2023-05-14T11:25:51.157Z,33.23
2023-05-14T11:27:58.229Z,25.00
2023-05-14T11:30:02.105Z,30.97
2023-05-14T11:32:06.874Z,32.47
2023-05-14T11:34:11.415Z,33.77
2023-05-14T11:36:14.748Z,48.67
2023-05-14T11:38:18.496Z,36.37
2023-05-14T11:40:22.166Z,31.67
2023-05-14T11:42:25.825Z,26.97
2023-05-14T11:44:29.041Z,33.03
2023-05-14T11:46:32.161Z,37.10
2023-05-14T11:48:35.223Z,33.67
2023-05-14T11:50:40.485Z,37.57
2023-05-14T11:52:43.691Z,42.60
2023-05-14T11:54:47.015Z,40.17
2023-05-14T11:56:51.548Z,28.53
2023-05-14T11:58:57.495Z,35.77
2023-05-14T12:01:00.724Z,49.27
2023-05-14T12:03:03.820Z,37.97
2023-05-14T12:05:09.072Z,42.13
2023-05-14T12:07:14.846Z,50.43
2023-05-14T12:09:18.992Z,42.90
2023-05-14T12:11:22.381Z,37.50
2023-05-14T12:13:27.215Z,27.50
2023-05-14T12:15:30.426Z,71.43
2023-05-14T12:17:33.943Z,29.97
2023-05-14T12:19:41.880Z,32.40
2023-05-14T12:21:45.816Z,24.67
2023-05-14T12:23:58.542Z,20.73
2023-05-14T12:26:09.137Z,26.03
2023-05-14T12:28:15.731Z,33.67
2023-05-14T12:30:21.847Z,44.10
2023-05-14T12:32:41.294Z,27.33
2023-05-14T12:34:44.562Z,20.13
2023-05-14T12:36:47.586Z,61.63
2023-05-14T12:38:52.217Z,23.03
2023-05-14T12:40:55.210Z,46.93
2023-05-14T12:42:58.297Z,28.90
2023-05-14T12:45:05.511Z,35.47
2023-05-14T12:47:09.533Z,32.20
2023-05-14T12:49:12.679Z,43.17
2023-05-14T12:51:15.745Z,51.80
2023-05-14T12:53:18.751Z,33.77
2023-05-14T12:55:23.283Z,36.10
2023-05-14T12:57:27.777Z,29.13
2023-05-14T12:59:31.028Z,38.17
2023-05-14T13:01:34.140Z,48.53
2023-05-14T13:03:37.379Z,27.03
2023-05-14T13:05:40.655Z,30.93
2023-05-14T13:07:44.001Z,30.67
2023-05-14T13:09:47.164Z,36.27
2023-05-14T13:11:51.579Z,35.63
2023-05-14T13:13:56.376Z,36.37
2023-05-14T13:15:59.418Z,25.23
2023-05-14T13:18:02.532Z,46.60
2023-05-14T13:20:06.436Z,23.33
2023-05-14T13:22:09.589Z,27.63
2023-05-14T13:24:13.108Z,58.90
2023-05-14T13:26:16.662Z,34.97
2023-05-14T13:28:21.303Z,29.43
2023-05-14T13:30:24.440Z,21.67
2023-05-14T13:32:27.585Z,36.37
2023-05-14T13:34:30.719Z,55.30
2023-05-14T13:36:33.887Z,27.20
2023-05-14T13:38:37.049Z,54.43
2023-05-14T13:40:42.590Z,55.83
2023-05-14T13:42:45.726Z,51.70
2023-05-14T13:44:50.306Z,38.90
2023-05-14T13:46:53.680Z,31.07
2023-05-14T13:48:56.949Z,101.70
2023-05-14T13:51:00.422Z,26.17
2023-05-14T13:53:03.546Z,49.27
2023-05-14T13:55:07.872Z,47.30
2023-05-14T13:57:10.997Z,53.60
2023-05-14T13:59:14.088Z,39.33
2023-05-14T14:01:18.563Z,42.40
2023-05-14T14:03:21.841Z,32.00
2023-05-14T14:05:28.409Z,28.07
2023-05-14T14:07:31.628Z,27.47
2023-05-14T14:09:36.818Z,26.57
2023-05-14T14:11:40.121Z,51.10
2023-05-14T14:13:45.110Z,50.13
2023-05-14T14:15:50.048Z,27.57
2023-05-14T14:17:54.818Z,147.53
2023-05-14T14:19:57.949Z,43.03
2023-05-14T14:22:01.077Z,27.30
2023-05-14T14:24:04.342Z,34.07
2023-05-14T14:26:07.623Z,36.30
2023-05-14T14:28:10.774Z,19.93
2023-05-14T14:30:16.552Z,47.50
2023-05-14T14:32:20.233Z,41.20
2023-05-14T14:34:24.844Z,32.03
2023-05-14T14:36:28.926Z,70.63
2023-05-14T14:38:32.011Z,35.00
2023-05-14T14:40:35.342Z,45.70
2023-05-14T14:42:38.810Z,58.03
2023-05-14T14:44:42.299Z,84.50
2023-05-14T14:46:45.381Z,64.10
2023-05-14T14:48:48.433Z,84.07
2023-05-14T14:50:53.219Z,63.93
2023-05-14T14:52:56.228Z,50.93
2023-05-14T14:54:59.299Z,57.87
2023-05-14T14:57:02.320Z,64.73
2023-05-14T14:59:05.468Z,80.30
2023-05-14T15:01:08.667Z,81.27
2023-05-14T15:03:11.998Z,69.93
2023-05-14T15:05:16.533Z,66.13
2023-05-14T15:07:22.148Z,53.70
2023-05-14T15:09:25.191Z,56.23
2023-05-14T15:11:28.884Z,40.50
2023-05-14T15:13:32.055Z,84.23
2023-05-14T15:15:35.522Z,78.00
2023-05-14T15:17:38.669Z,48.30
2023-05-14T15:19:41.773Z,80.17
2023-05-14T15:21:44.939Z,77.40
2023-05-14T15:23:49.420Z,54.23
2023-05-14T15:25:52.584Z,56.00
2023-05-14T15:27:55.950Z,101.60
2023-05-14T15:29:58.965Z,68.77
2023-05-14T15:32:02.114Z,59.27
2023-05-14T15:34:05.327Z,62.10
2023-05-14T15:36:08.803Z,50.97
2023-05-14T15:38:12.057Z,57.40
2023-05-14T15:40:16.531Z,42.63
2023-05-14T15:42:20.799Z,78.83
2023-05-14T15:44:23.942Z,55.70
2023-05-14T15:46:27.319Z,67.47
2023-05-14T15:48:30.571Z,46.60
2023-05-14T15:50:33.724Z,57.20
2023-05-14T15:52:36.977Z,65.20
2023-05-14T15:54:40.057Z,49.27
2023-05-14T15:56:44.483Z,62.03
2023-05-14T15:58:47.612Z,55.13
2023-05-14T16:00:50.658Z,61.57
2023-05-14T16:02:53.764Z,63.00
2023-05-14T16:04:57.065Z,67.77
2023-05-14T16:07:02.974Z,49.20
2023-05-14T16:09:06.119Z,37.57
2023-05-14T16:11:09.353Z,50.20
2023-05-14T16:13:13.771Z,50.13
2023-05-14T16:15:16.995Z,106.80
2023-05-14T16:17:20.076Z,79.97
2023-05-14T16:19:23.151Z,87.27
2023-05-14T16:21:26.390Z,38.70
2023-05-14T16:23:29.606Z,69.83
2023-05-14T16:25:32.734Z,73.23
2023-05-14T16:27:35.900Z,53.60
2023-05-14T16:29:40.431Z,38.70
2023-05-14T16:31:43.553Z,53.10
2023-05-14T16:33:46.855Z,84.70
2023-05-14T16:35:51.124Z,43.67
2023-05-14T16:37:54.398Z,36.00
2023-05-14T16:39:57.560Z,68.07
2023-05-14T16:42:00.649Z,47.60
2023-05-14T16:44:03.717Z,57.70
2023-05-14T16:46:08.429Z,58.73
2023-05-14T16:48:11.702Z,68.87
2023-05-14T16:50:14.787Z,81.77
2023-05-14T16:52:17.812Z,50.17
2023-05-14T16:54:21.060Z,60.80
2023-05-14T16:56:24.119Z,80.63
2023-05-14T16:58:27.217Z,61.40
2023-05-14T17:00:30.707Z,62.07
2023-05-14T17:02:35.158Z,72.47
2023-05-14T17:04:41.921Z,77.27
2023-05-14T17:06:45.193Z,73.47
2023-05-14T17:08:48.240Z,68.47
2023-05-14T17:10:51.716Z,66.57
2023-05-14T17:12:54.810Z,49.23
2023-05-14T17:14:57.904Z,63.17
2023-05-14T17:17:00.978Z,76.27
2023-05-14T17:19:05.757Z,60.93
2023-05-14T17:21:08.932Z,46.20
2023-05-14T17:23:11.990Z,45.53
2023-05-14T17:25:15.066Z,73.77
2023-05-14T17:27:18.146Z,46.27
2023-05-14T17:29:21.195Z,62.97
2023-05-14T17:31:24.332Z,63.53
2023-05-14T17:33:27.411Z,313.03
2023-05-14T17:35:35.806Z,85.10
2023-05-14T17:37:38.884Z,106.50
2023-05-14T17:39:41.923Z,108.20
2023-05-14T17:41:45.260Z,115.97
2023-05-14T17:43:48.222Z,97.83
2023-05-14T17:45:54.379Z,80.53
2023-05-14T17:47:58.026Z,67.37
2023-05-14T17:50:01.299Z,112.67
2023-05-14T17:52:06.259Z,93.40
2023-05-14T17:54:09.416Z,75.97
2023-05-14T17:56:12.550Z,87.77
2023-05-14T17:58:16.287Z,110.83
2023-05-14T18:00:19.870Z,94.00
2023-05-14T18:02:23.066Z,86.07
2023-05-14T18:04:26.468Z,63.60
2023-05-14T18:06:29.847Z,98.97
2023-05-14T18:08:34.370Z,103.53
2023-05-14T18:10:37.573Z,70.37
2023-05-14T18:12:40.834Z,88.60
2023-05-14T18:14:45.579Z,93.53
2023-05-14T18:16:49.009Z,70.63
2023-05-14T18:18:52.203Z,77.60
2023-05-14T18:20:55.231Z,89.07
2023-05-14T18:22:58.304Z,78.50
2023-05-14T18:25:02.833Z,99.13
2023-05-14T18:27:06.254Z,63.00
2023-05-14T18:29:09.424Z,75.93
2023-05-14T18:31:12.640Z,115.93
2023-05-14T18:33:15.891Z,108.73
2023-05-14T18:35:19.115Z,73.40
2023-05-14T18:37:22.250Z,80.10
2023-05-14T18:39:25.635Z,75.50
2023-05-14T18:41:30.203Z,96.27
2023-05-14T18:43:33.375Z,95.70
2023-05-14T18:45:36.540Z,80.97
2023-05-14T18:47:40.447Z,69.93
2023-05-14T18:49:43.593Z,81.83
2023-05-14T18:51:46.807Z,67.47
2023-05-14T18:53:49.892Z,104.47
2023-05-14T18:55:52.965Z,85.87
2023-05-14T18:57:57.935Z,87.10
2023-05-14T19:00:02.085Z,61.97
2023-05-14T19:02:06.171Z,79.87
2023-05-14T19:04:09.535Z,62.27
2023-05-14T19:06:12.888Z,124.30
2023-05-14T19:08:17.311Z,98.10
2023-05-14T19:10:20.522Z,91.50
2023-05-14T19:12:23.939Z,106.40
2023-05-14T19:14:28.415Z,77.50
2023-05-14T19:16:32.630Z,134.97
2023-05-14T19:18:36.082Z,82.07
2023-05-14T19:20:39.278Z,72.70
2023-05-14T19:22:42.404Z,99.13
2023-05-14T19:24:45.546Z,95.30
2023-05-14T19:26:48.891Z,106.43
2023-05-14T19:28:52.734Z,98.77
2023-05-14T19:30:57.366Z,100.97
2023-05-14T19:33:00.779Z,61.20
2023-05-14T19:35:03.944Z,119.80
2023-05-14T19:37:07.285Z,96.30
2023-05-14T19:39:10.978Z,98.03
2023-05-14T19:41:14.067Z,107.47
2023-05-14T19:43:17.154Z,105.50
2023-05-14T19:45:20.227Z,95.70
2023-05-14T19:47:28.538Z,88.53
2023-05-14T19:49:31.734Z,111.10
2023-05-14T19:51:34.937Z,118.80
2023-05-14T19:53:38.061Z,101.60
2023-05-14T19:55:41.723Z,98.60
2023-05-14T19:57:44.900Z,85.43
2023-05-14T19:59:48.027Z,93.40
2023-05-14T20:01:51.196Z,96.40
2023-05-14T20:03:55.862Z,113.83
2023-05-14T20:05:59.066Z,89.67
2023-05-14T20:08:04.004Z,92.40
2023-05-14T20:10:08.156Z,123.10
2023-05-14T20:12:12.921Z,122.70
2023-05-14T20:14:16.277Z,111.37
2023-05-14T20:16:19.604Z,119.60
2023-05-14T20:18:23.188Z,99.87
2023-05-14T20:20:29.663Z,123.83
2023-05-14T20:22:35.584Z,118.90
2023-05-14T20:24:38.748Z,113.43
2023-05-14T20:26:42.194Z,102.50
2023-05-14T20:28:45.713Z,144.77
2023-05-14T20:30:48.998Z,118.10
2023-05-14T20:32:52.556Z,141.10
2023-05-14T20:34:56.009Z,131.30
2023-05-14T20:37:01.403Z,118.30
2023-05-14T20:39:06.163Z,100.43
2023-05-14T20:41:09.428Z,99.23
2023-05-14T20:43:12.726Z,131.47
2023-05-14T20:45:15.837Z,112.73
2023-05-14T20:47:21.401Z,122.87
2023-05-14T20:49:24.501Z,127.93
2023-05-14T20:51:27.579Z,103.27
2023-05-14T20:53:32.091Z,105.90
2023-05-14T20:55:35.386Z,125.07
2023-05-14T20:57:38.415Z,104.20
2023-05-14T20:59:41.596Z,108.10
2023-05-14T21:01:44.676Z,117.57
2023-05-14T21:03:47.988Z,130.20
2023-05-14T21:05:52.635Z,119.37
2023-05-14T21:07:55.817Z,126.20
2023-05-14T21:10:01.895Z,118.33
2023-05-14T21:12:05.741Z,150.83
2023-05-14T21:14:08.857Z,114.90
2023-05-14T21:16:12.789Z,96.70
2023-05-14T21:18:16.033Z,133.67
2023-05-14T21:20:19.330Z,126.50
2023-05-14T21:22:23.457Z,126.57
2023-05-14T21:24:26.547Z,114.47
2023-05-14T21:26:32.617Z,114.57
2023-05-14T21:28:35.685Z,106.07
2023-05-14T21:30:38.795Z,107.20
2023-05-14T21:32:42.000Z,123.53
2023-05-14T21:34:45.144Z,122.40
2023-05-14T21:36:48.568Z,136.97
2023-05-14T21:38:53.562Z,117.73
2023-05-14T21:40:56.681Z,114.73
2023-05-14T21:43:01.519Z,104.07
2023-05-14T21:45:05.102Z,89.87
2023-05-14T21:47:08.567Z,107.07
2023-05-14T21:49:11.732Z,98.77
2023-05-14T21:51:14.922Z,104.73
2023-05-14T21:53:18.046Z,86.70
2023-05-14T21:55:21.510Z,111.87
2023-05-14T21:57:27.377Z,103.97
2023-05-14T21:59:32.718Z,136.97
2023-05-14T22:01:50.631Z,121.97
2023-05-14T22:04:00.320Z,130.73
2023-05-14T22:06:03.655Z,148.90
2023-05-14T22:08:07.278Z,109.17
2023-05-14T22:10:11.439Z,119.87
2023-05-14T22:12:14.547Z,101.00
2023-05-14T22:14:17.632Z,129.33
2023-05-14T22:16:22.857Z,101.37
2023-05-14T22:18:26.150Z,101.77
2023-05-14T22:20:29.236Z,120.43
2023-05-14T22:22:32.362Z,87.67
2023-05-14T22:24:35.524Z,103.53
2023-05-14T22:26:38.689Z,142.73
2023-05-14T22:28:43.538Z,96.73
2023-05-14T22:30:46.556Z,126.87
2023-05-14T22:32:51.081Z,126.47
2023-05-14T22:34:54.183Z,115.63
2023-05-14T22:36:57.257Z,109.83
2023-05-14T22:39:00.351Z,127.33
2023-05-14T22:41:03.389Z,157.30
2023-05-14T22:43:06.447Z,117.23
2023-05-14T22:45:10.565Z,98.40
2023-05-14T22:47:13.622Z,100.13
2023-05-14T22:49:18.133Z,142.27
2023-05-14T22:51:21.155Z,122.23
2023-05-14T22:53:25.271Z,123.43
2023-05-14T22:55:28.628Z,113.23
2023-05-14T22:57:31.762Z,104.67
2023-05-14T22:59:34.855Z,114.60
2023-05-14T23:01:37.975Z,119.20
2023-05-14T23:03:41.042Z,117.80
2023-05-14T23:05:45.457Z,109.90
2023-05-14T23:07:48.515Z,116.77
2023-05-14T23:09:51.573Z,113.13
2023-05-14T23:11:55.015Z,111.87
2023-05-14T23:13:58.035Z,131.77
2023-05-14T23:16:01.171Z,126.23
2023-05-14T23:18:04.348Z,121.67
2023-05-14T23:20:10.548Z,125.17
2023-05-14T23:22:14.975Z,124.03
2023-05-14T23:24:18.065Z,118.57
2023-05-14T23:26:21.608Z,111.97
2023-05-14T23:28:24.816Z,137.60
2023-05-14T23:30:27.836Z,106.20
2023-05-14T23:32:30.943Z,110.60
2023-05-14T23:34:34.631Z,116.73
2023-05-14T23:36:37.747Z,121.27
2023-05-14T23:38:42.291Z,140.03
2023-05-14T23:40:45.423Z,120.20
2023-05-14T23:42:48.461Z,109.73
2023-05-14T23:44:51.632Z,135.87
2023-05-14T23:46:54.917Z,105.03
2023-05-14T23:48:58.232Z,121.63
2023-05-14T23:51:01.330Z,112.00
2023-05-14T23:53:04.451Z,106.97
2023-05-14T23:55:09.780Z,111.37
2023-05-14T23:57:14.509Z,159.47
2023-05-14T23:59:17.687Z,130.53
